Time;durP1;ratioP1;P1;durP2;ratioP2;P2;SDS_P1;SDS_P2;PMS_P1;PMS_P2;Temp;Humidity;BMP_temperature;BMP_pressure;BME280_temperature;BME280_humidity;BME280_pressure;Samples;Min_cycle;Max_cycle;Signal;HPM_P1;HPM_P2
2021/12/11 00:01:37;;;;;;;17.02;6.47;;;;;;;;;;5028406;28;20299;-49
2021/12/11 00:04:12;;;;;;;13.38;5.55;;;;;;;;;;5032687;28;20060;-53
2021/12/11 00:06:40;;;;;;;15.20;5.60;;;;;;;;;;5048148;28;20052;-52
2021/12/11 00:09:13;;;;;;;17.58;6.90;;;;;;;;;;5031414;28;20057;-53
2021/12/11 00:11:42;;;;;;;18.88;7.13;;;;;;;;;;5027949;28;20049;-55
2021/12/11 00:14:10;;;;;;;15.10;6.82;;;;;;;;;;5033269;28;20073;-56
2021/12/11 00:16:37;;;;;;;15.53;7.07;;;;;;;;;;5044885;28;20065;-50
2021/12/11 00:19:05;;;;;;;15.05;6.85;;;;;;;;;;5033480;28;20138;-51
2021/12/11 00:21:32;;;;;;;19.50;6.75;;;;;;;;;;5035553;28;20171;-53
2021/12/11 00:24:02;;;;;;;15.65;6.85;;;;;;;;;;5024252;28;20189;-50
2021/12/11 00:26:30;;;;;;;19.23;7.50;;;;;;;;;;5045875;28;20076;-54
2021/12/11 00:28:58;;;;;;;16.05;6.15;;;;;;;;;;5022032;28;20044;-52
2021/12/11 00:31:26;;;;;;;16.08;6.63;;;;;;;;;;5050244;28;20107;-55
2021/12/11 00:33:55;;;;;;;16.88;7.47;;;;;;;;;;5036622;28;20149;-51
2021/12/11 00:36:24;;;;;;;18.67;7.40;;;;;;;;;;5027049;28;20072;-50
2021/12/11 00:38:52;;;;;;;16.25;7.25;;;;;;;;;;5023294;28;20053;-52
2021/12/11 00:41:20;;;;;;;17.20;7.57;;;;;;;;;;5027363;28;20050;-54
2021/12/11 00:43:48;;;;;;;17.80;6.78;;;;;;;;;;5026959;28;20052;-53
2021/12/11 00:46:17;;;;;;;21.85;7.07;;;;;;;;;;5041874;28;20068;-51
2021/12/11 00:48:46;;;;;;;20.65;7.35;;;;;;;;;;5047036;28;20086;-54
2021/12/11 00:51:14;;;;;;;17.35;7.05;;;;;;;;;;5016322;28;20053;-55
2021/12/11 00:53:43;;;;;;;20.70;7.32;;;;;;;;;;5017937;28;20110;-51
2021/12/11 00:56:11;;;;;;;22.70;7.97;;;;;;;;;;5022825;28;20045;-54
2021/12/11 00:58:38;;;;;;;19.30;7.80;;;;;;;;;;5024234;28;20045;-50
2021/12/11 01:01:09;;;;;;;19.15;7.50;;;;;;;;;;5022778;28;20076;-53
2021/12/11 01:03:40;;;;;;;17.63;7.35;;;;;;;;;;5026701;28;20154;-54
2021/12/11 01:06:08;;;;;;;19.45;7.18;;;;;;;;;;5023178;28;20049;-54
2021/12/11 01:08:37;;;;;;;17.77;7.13;;;;;;;;;;5026358;28;20077;-53
2021/12/11 01:11:07;;;;;;;15.20;6.40;;;;;;;;;;5026394;28;20190;-51
2021/12/11 01:13:35;;;;;;;15.18;6.38;;;;;;;;;;5034004;28;20058;-54
2021/12/11 01:16:06;;;;;;;19.52;7.65;;;;;;;;;;5027196;28;20065;-56
2021/12/11 01:18:37;;;;;;;14.50;6.45;;;;;;;;;;5046380;28;20056;-53
2021/12/11 01:21:24;;;;;;;19.38;7.03;;;;;;;;;;5037542;28;20053;-52
2021/12/11 01:24:08;;;;;;;16.60;6.68;;;;;;;;;;5027418;28;20073;-54
2021/12/11 01:26:35;;;;;;;14.63;6.82;;;;;;;;;;5022236;28;20049;-54
2021/12/11 01:29:02;;;;;;;18.25;7.35;;;;;;;;;;5042692;28;20064;-55
2021/12/11 01:31:29;;;;;;;19.83;7.68;;;;;;;;;;5023064;28;20060;-55
2021/12/11 01:33:57;;;;;;;19.48;7.63;;;;;;;;;;5026379;28;20085;-54
2021/12/11 01:36:25;;;;;;;18.83;8.05;;;;;;;;;;5031664;28;20053;-55
2021/12/11 01:38:54;;;;;;;15.83;7.20;;;;;;;;;;5026424;28;20053;-53
2021/12/11 01:41:21;;;;;;;18.92;7.20;;;;;;;;;;5022679;28;20304;-51
2021/12/11 01:43:50;;;;;;;14.90;6.75;;;;;;;;;;5025971;28;20077;-50
2021/12/11 01:46:19;;;;;;;17.33;7.45;;;;;;;;;;5026756;28;20131;-52
2021/12/11 01:48:50;;;;;;;14.15;6.03;;;;;;;;;;5040873;28;20175;-53
2021/12/11 01:51:19;;;;;;;17.45;6.20;;;;;;;;;;5047952;28;20145;-51
2021/12/11 01:53:51;;;;;;;20.30;6.88;;;;;;;;;;5045171;28;20131;-56
2021/12/11 01:56:18;;;;;;;17.67;6.68;;;;;;;;;;5047081;28;20474;-49
2021/12/11 01:58:50;;;;;;;20.73;7.20;;;;;;;;;;5025591;28;20053;-51
2021/12/11 02:01:19;;;;;;;21.10;6.60;;;;;;;;;;5017968;28;20075;-52
2021/12/11 02:03:49;;;;;;;16.73;6.88;;;;;;;;;;5013364;28;20103;-53
2021/12/11 02:06:15;;;;;;;14.40;7.13;;;;;;;;;;5026430;28;20145;-48
2021/12/11 02:08:42;;;;;;;13.57;6.25;;;;;;;;;;5034513;28;20128;-50
2021/12/11 02:11:12;;;;;;;17.90;7.00;;;;;;;;;;5060874;28;20053;-52
2021/12/11 02:13:45;;;;;;;16.35;6.95;;;;;;;;;;5036480;28;20077;-55
2021/12/11 02:16:16;;;;;;;21.42;7.07;;;;;;;;;;5045367;28;20048;-52
2021/12/11 02:18:45;;;;;;;14.27;6.28;;;;;;;;;;5032654;28;20065;-51
2021/12/11 02:21:14;;;;;;;16.65;6.45;;;;;;;;;;5027178;28;20057;-48
2021/12/11 02:23:44;;;;;;;16.30;6.30;;;;;;;;;;5026285;28;20056;-51
2021/12/11 02:26:12;;;;;;;20.70;6.80;;;;;;;;;;5045499;28;20068;-52
2021/12/11 02:28:42;;;;;;;19.70;6.60;;;;;;;;;;5035737;28;20087;-52
2021/12/11 02:31:12;;;;;;;20.63;7.68;;;;;;;;;;5025799;28;20054;-49
2021/12/11 02:33:43;;;;;;;17.65;6.53;;;;;;;;;;5019828;28;20053;-51
2021/12/11 02:36:12;;;;;;;16.95;6.75;;;;;;;;;;5025378;28;20057;-52
2021/12/11 02:38:43;;;;;;;17.58;6.90;;;;;;;;;;5020393;28;20095;-54
2021/12/11 02:41:12;;;;;;;22.88;6.28;;;;;;;;;;5018080;28;20123;-51
2021/12/11 02:43:42;;;;;;;18.60;7.05;;;;;;;;;;5026568;28;20144;-55
2021/12/11 02:46:11;;;;;;;20.55;7.85;;;;;;;;;;5039909;28;20145;-54
2021/12/11 02:48:39;;;;;;;18.15;6.35;;;;;;;;;;5050618;28;20056;-52
2021/12/11 02:51:08;;;;;;;20.92;6.53;;;;;;;;;;5045250;28;20099;-54
2021/12/11 02:53:38;;;;;;;17.80;6.15;;;;;;;;;;5049044;28;20136;-53
2021/12/11 02:56:07;;;;;;;20.80;6.95;;;;;;;;;;5045006;28;20049;-55
2021/12/11 02:58:37;;;;;;;15.38;6.47;;;;;;;;;;5045014;28;20050;-55
2021/12/11 03:01:05;;;;;;;14.38;6.15;;;;;;;;;;5038725;28;20140;-54
2021/12/11 03:03:36;;;;;;;13.70;5.80;;;;;;;;;;5030321;28;20079;-50
2021/12/11 03:06:09;;;;;;;20.73;6.53;;;;;;;;;;5027145;28;20062;-49
2021/12/11 03:08:35;;;;;;;15.77;6.25;;;;;;;;;;5045288;28;20076;-51
2021/12/11 03:11:04;;;;;;;13.43;6.13;;;;;;;;;;5045179;28;20045;-50
2021/12/11 03:13:33;;;;;;;18.30;6.95;;;;;;;;;;5049805;28;20110;-55
2021/12/11 03:16:01;;;;;;;15.10;6.82;;;;;;;;;;5037122;28;20063;-52
2021/12/11 03:18:28;;;;;;;13.87;5.83;;;;;;;;;;5032839;28;20077;-51
2021/12/11 03:20:55;;;;;;;15.23;6.88;;;;;;;;;;5026895;28;20100;-50
2021/12/11 03:23:22;;;;;;;14.45;5.75;;;;;;;;;;5046949;28;20114;-55
2021/12/11 03:25:50;;;;;;;15.75;6.45;;;;;;;;;;5039486;28;20045;-52
2021/12/11 03:28:17;;;;;;;15.05;6.93;;;;;;;;;;5029716;28;20115;-51
2021/12/11 03:30:50;;;;;;;15.07;6.20;;;;;;;;;;5027587;28;20114;-48
2021/12/11 03:33:18;;;;;;;18.27;7.13;;;;;;;;;;5009684;28;20054;-52
2021/12/11 03:35:47;;;;;;;15.13;5.88;;;;;;;;;;5003949;28;20478;-51
2021/12/11 03:38:14;;;;;;;16.95;6.45;;;;;;;;;;5008712;28;20042;-53
2021/12/11 03:40:41;;;;;;;13.95;5.70;;;;;;;;;;5008997;28;20054;-48
2021/12/11 03:43:09;;;;;;;12.25;5.60;;;;;;;;;;5004923;28;20046;-51
2021/12/11 03:45:36;;;;;;;17.17;5.78;;;;;;;;;;5008382;28;20122;-52
2021/12/11 03:48:05;;;;;;;15.55;6.10;;;;;;;;;;5005541;28;20057;-50
2021/12/11 03:50:33;;;;;;;16.17;6.07;;;;;;;;;;5008345;28;20140;-51
2021/12/11 03:52:59;;;;;;;13.77;6.10;;;;;;;;;;5004622;28;20061;-49
2021/12/11 03:55:29;;;;;;;12.55;6.03;;;;;;;;;;5008636;28;20142;-51
2021/12/11 03:57:59;;;;;;;14.25;5.82;;;;;;;;;;5005102;28;20053;-51
2021/12/11 04:00:30;;;;;;;14.57;5.63;;;;;;;;;;5008578;28;20053;-52
2021/12/11 04:03:03;;;;;;;11.57;5.63;;;;;;;;;;5004469;28;20057;-53
2021/12/11 04:05:30;;;;;;;15.82;5.82;;;;;;;;;;5008458;28;20062;-55
2021/12/11 04:07:59;;;;;;;14.02;5.55;;;;;;;;;;5005110;28;20050;-55
2021/12/11 04:10:27;;;;;;;12.48;5.65;;;;;;;;;;5009664;28;20136;-53
2021/12/11 04:12:54;;;;;;;13.23;5.72;;;;;;;;;;4998791;28;20057;-56
2021/12/11 04:15:21;;;;;;;19.33;6.22;;;;;;;;;;5007929;28;20056;-55
2021/12/11 04:17:47;;;;;;;14.95;5.85;;;;;;;;;;5004674;28;20073;-55
2021/12/11 04:20:15;;;;;;;13.75;6.07;;;;;;;;;;5007860;28;20049;-55
2021/12/11 04:22:42;;;;;;;15.37;5.93;;;;;;;;;;5004508;28;21528;-53
2021/12/11 04:25:12;;;;;;;13.10;5.25;;;;;;;;;;5008190;28;20081;-50
2021/12/11 04:27:38;;;;;;;12.23;5.07;;;;;;;;;;5005939;28;20132;-53
2021/12/11 04:30:08;;;;;;;12.85;5.35;;;;;;;;;;5007801;28;20073;-55
2021/12/11 04:32:35;;;;;;;12.23;5.60;;;;;;;;;;5008021;28;20050;-50
2021/12/11 04:35:02;;;;;;;15.25;6.03;;;;;;;;;;5004485;28;20100;-52
2021/12/11 04:37:30;;;;;;;13.25;5.93;;;;;;;;;;5008969;28;20060;-55
2021/12/11 04:40:01;;;;;;;14.18;5.93;;;;;;;;;;5006537;28;20058;-52
2021/12/11 04:42:40;;;;;;;13.45;5.53;;;;;;;;;;5010780;28;20050;-55
2021/12/11 04:45:09;;;;;;;13.13;5.68;;;;;;;;;;5004498;28;20053;-52
2021/12/11 04:47:41;;;;;;;12.38;5.60;;;;;;;;;;5007996;28;20093;-49
2021/12/11 04:50:15;;;;;;;14.55;5.18;;;;;;;;;;5004142;28;20112;-50
2021/12/11 04:52:52;;;;;;;14.35;5.55;;;;;;;;;;5007446;28;20061;-50
2021/12/11 04:55:32;;;;;;;11.52;5.07;;;;;;;;;;5005017;28;20046;-54
2021/12/11 05:00:56;;;;;;;10.90;5.18;;;;;;;;;;5012757;28;20064;-54
2021/12/11 05:06:18;;;;;;;13.00;5.60;;;;;;;;;;5007636;28;20079;-51
2021/12/11 05:11:37;;;;;;;12.65;5.07;;;;;;;;;;5002546;28;20191;-52
2021/12/11 05:14:06;;;;;;;12.25;4.47;;;;;;;;;;5007064;28;20132;-56
2021/12/11 05:16:32;;;;;;;13.35;5.43;;;;;;;;;;5002617;28;20116;-52
2021/12/11 05:19:02;;;;;;;11.43;5.07;;;;;;;;;;5005861;28;20062;-55
2021/12/11 05:21:29;;;;;;;11.63;5.03;;;;;;;;;;5011755;28;20144;-55
2021/12/11 05:23:56;;;;;;;10.65;4.95;;;;;;;;;;5004679;28;20054;-53
2021/12/11 05:26:22;;;;;;;10.70;3.95;;;;;;;;;;5002612;28;20169;-54
2021/12/11 05:28:49;;;;;;;10.95;4.45;;;;;;;;;;5005933;28;20135;-53
2021/12/11 05:31:17;;;;;;;14.75;4.45;;;;;;;;;;5002608;28;20470;-56
2021/12/11 05:33:44;;;;;;;10.30;4.80;;;;;;;;;;5005369;28;20140;-55
2021/12/11 05:36:11;;;;;;;13.18;5.30;;;;;;;;;;5003545;28;20046;-55
2021/12/11 05:38:39;;;;;;;14.15;5.10;;;;;;;;;;5006159;28;20078;-55
2021/12/11 05:41:08;;;;;;;11.45;5.15;;;;;;;;;;5002234;28;20103;-53
2021/12/11 05:43:34;;;;;;;;;;;;;;;;;;5006162;28;20049;-50
2021/12/11 05:46:01;;;;;;;7.63;3.38;;;;;;;;;;5001014;28;20036;-52
2021/12/11 05:48:29;;;;;;;12.75;5.30;;;;;;;;;;5005758;28;20594;-54
2021/12/11 05:50:57;;;;;;;17.70;6.78;;;;;;;;;;5002356;28;20053;-54
2021/12/11 05:53:24;;;;;;;10.47;4.93;;;;;;;;;;5005832;28;20058;-53
2021/12/11 05:55:54;;;;;;;13.77;5.15;;;;;;;;;;5018123;28;20061;-55
2021/12/11 05:58:35;;;;;;;12.48;5.60;;;;;;;;;;5021501;28;20290;-54
2021/12/11 06:01:02;;;;;;;14.07;5.35;;;;;;;;;;5028406;28;20088;-54
2021/12/11 06:03:30;;;;;;;10.93;4.72;;;;;;;;;;5024983;28;20069;-56
2021/12/11 06:05:58;;;;;;;14.10;5.22;;;;;;;;;;5031561;28;20057;-56
2021/12/11 06:08:25;;;;;;;12.32;5.35;;;;;;;;;;5025518;28;20144;-50
2021/12/11 06:10:51;;;;;;;11.65;4.65;;;;;;;;;;5027625;28;20519;-51
2021/12/11 06:13:17;;;;;;;11.63;4.35;;;;;;;;;;5023827;28;20134;-55
2021/12/11 06:15:45;;;;;;;10.88;4.40;;;;;;;;;;5031484;28;20060;-50
2021/12/11 06:18:17;;;;;;;12.38;5.18;;;;;;;;;;5027198;28;20149;-49
2021/12/11 06:20:45;;;;;;;11.57;4.68;;;;;;;;;;5031929;28;20059;-49
2021/12/11 06:23:12;;;;;;;9.35;4.28;;;;;;;;;;5027597;28;20058;-51
2021/12/11 06:25:39;;;;;;;9.20;4.00;;;;;;;;;;5030800;28;20073;-54
2021/12/11 06:28:06;;;;;;;10.98;4.97;;;;;;;;;;5025507;28;20052;-51
2021/12/11 06:30:33;;;;;;;11.32;4.22;;;;;;;;;;5031678;28;20053;-55
2021/12/11 06:33:00;;;;;;;13.15;5.35;;;;;;;;;;5026203;28;20132;-50
2021/12/11 06:35:30;;;;;;;14.05;5.15;;;;;;;;;;5031354;28;20060;-52
2021/12/11 06:37:58;;;;;;;11.18;4.13;;;;;;;;;;5026512;28;20140;-50
2021/12/11 06:40:25;;;;;;;11.32;4.72;;;;;;;;;;5029145;28;20053;-53
2021/12/11 06:42:51;;;;;;;9.63;3.95;;;;;;;;;;5029303;28;20071;-54
2021/12/11 06:45:18;;;;;;;13.43;5.32;;;;;;;;;;5029142;28;20080;-51
2021/12/11 06:47:47;;;;;;;9.75;4.03;;;;;;;;;;5032401;28;20095;-54
2021/12/11 06:50:18;;;;;;;9.20;3.70;;;;;;;;;;5020506;28;20049;-53
2021/12/11 06:52:45;;;;;;;12.68;4.63;;;;;;;;;;5031755;28;20050;-51
2021/12/11 06:55:15;;;;;;;12.15;4.97;;;;;;;;;;5028561;28;20067;-55
2021/12/11 06:57:41;;;;;;;12.02;4.93;;;;;;;;;;5030845;28;20053;-53
2021/12/11 07:00:09;;;;;;;11.68;4.47;;;;;;;;;;5015904;28;20053;-55
2021/12/11 07:02:35;;;;;;;13.77;5.15;;;;;;;;;;5044561;28;20053;-55
2021/12/11 07:05:02;;;;;;;10.30;4.60;;;;;;;;;;5040800;28;20064;-50
2021/12/11 07:07:33;;;;;;;10.43;4.65;;;;;;;;;;5028880;28;20073;-49
2021/12/11 07:10:00;;;;;;;10.95;4.38;;;;;;;;;;5025806;28;20169;-50
2021/12/11 07:12:28;;;;;;;16.08;5.35;;;;;;;;;;5045109;28;20085;-50
2021/12/11 07:14:55;;;;;;;10.10;4.65;;;;;;;;;;5024910;28;20136;-51
2021/12/11 07:17:22;;;;;;;12.77;5.22;;;;;;;;;;5045865;28;20057;-50
2021/12/11 07:19:49;;;;;;;12.02;4.95;;;;;;;;;;5042041;28;20060;-50
2021/12/11 07:22:15;;;;;;;11.18;4.28;;;;;;;;;;5046108;28;20163;-53
2021/12/11 07:24:44;;;;;;;12.30;5.70;;;;;;;;;;5041909;28;20049;-51
2021/12/11 07:27:11;;;;;;;13.52;4.93;;;;;;;;;;5030505;28;20069;-52
2021/12/11 07:29:39;;;;;;;15.95;5.55;;;;;;;;;;5031411;28;20136;-51
2021/12/11 07:32:07;;;;;;;9.98;4.35;;;;;;;;;;5044926;28;20174;-52
2021/12/11 07:34:34;;;;;;;15.07;5.15;;;;;;;;;;5045432;28;20057;-52
2021/12/11 07:37:02;;;;;;;14.18;5.55;;;;;;;;;;5024954;28;20103;-49
2021/12/11 07:39:28;;;;;;;11.90;4.83;;;;;;;;;;5028235;28;20137;-49
2021/12/11 07:41:55;;;;;;;12.90;4.90;;;;;;;;;;5024936;28;20140;-53
2021/12/11 07:44:23;;;;;;;16.65;5.60;;;;;;;;;;5027713;28;20140;-53
2021/12/11 07:46:51;;;;;;;12.93;5.20;;;;;;;;;;5024909;28;20156;-50
2021/12/11 07:49:17;;;;;;;11.02;4.57;;;;;;;;;;5028356;28;20054;-50
2021/12/11 07:51:44;;;;;;;11.90;4.65;;;;;;;;;;5024698;28;20148;-52
2021/12/11 07:54:11;;;;;;;15.93;5.72;;;;;;;;;;5027265;28;20054;-49
2021/12/11 07:56:37;;;;;;;14.68;5.53;;;;;;;;;;5024196;28;20135;-53
2021/12/11 07:59:05;;;;;;;13.93;4.82;;;;;;;;;;5028216;28;20057;-52
2021/12/11 08:01:34;;;;;;;14.30;5.50;;;;;;;;;;5023548;28;20168;-52
2021/12/11 08:04:02;;;;;;;12.73;5.10;;;;;;;;;;5026394;28;20053;-55
2021/12/11 08:06:29;;;;;;;14.90;5.00;;;;;;;;;;5024609;28;20099;-53
2021/12/11 08:08:56;;;;;;;12.30;4.75;;;;;;;;;;5028054;28;20049;-55
2021/12/11 08:11:25;;;;;;;10.23;4.70;;;;;;;;;;5024811;28;20056;-54
2021/12/11 08:13:53;;;;;;;14.77;5.97;;;;;;;;;;5044015;28;20060;-55
2021/12/11 08:16:24;;;;;;;10.20;4.35;;;;;;;;;;5027748;28;20084;-56
2021/12/11 08:18:53;;;;;;;11.00;4.57;;;;;;;;;;5024332;28;20395;-53
2021/12/11 08:21:23;;;;;;;16.05;5.32;;;;;;;;;;5028380;28;20125;-54
2021/12/11 08:23:54;;;;;;;14.48;5.68;;;;;;;;;;5025215;28;20057;-51
2021/12/11 08:26:22;;;;;;;14.75;6.00;;;;;;;;;;5044314;28;20118;-49
2021/12/11 08:28:50;;;;;;;11.93;5.17;;;;;;;;;;5025473;28;20084;-52
2021/12/11 08:31:17;;;;;;;14.32;5.00;;;;;;;;;;5027378;28;20054;-52
2021/12/11 08:33:47;;;;;;;13.15;5.13;;;;;;;;;;5023683;28;20057;-50
2021/12/11 08:36:14;;;;;;;14.75;5.90;;;;;;;;;;5027650;28;20112;-54
2021/12/11 08:38:43;;;;;;;11.38;4.60;;;;;;;;;;5025136;28;20096;-52
2021/12/11 08:41:11;;;;;;;18.60;5.93;;;;;;;;;;5029785;28;20049;-53
2021/12/11 08:43:37;;;;;;;14.48;5.47;;;;;;;;;;5024047;28;20064;-48
2021/12/11 08:46:09;;;;;;;12.80;5.28;;;;;;;;;;4999655;28;20068;-51
2021/12/11 08:48:36;;;;;;;13.65;5.15;;;;;;;;;;4985068;28;20069;-51
2021/12/11 08:51:07;;;;;;;13.20;5.32;;;;;;;;;;5007923;28;20065;-55
2021/12/11 08:53:34;;;;;;;17.80;6.20;;;;;;;;;;5026236;28;20041;-52
2021/12/11 08:56:02;;;;;;;16.58;5.43;;;;;;;;;;5029627;28;20049;-51
2021/12/11 08:58:29;;;;;;;14.10;5.13;;;;;;;;;;5023021;28;20574;-50
2021/12/11 09:00:58;;;;;;;13.80;5.03;;;;;;;;;;5026639;28;20340;-51
2021/12/11 09:03:26;;;;;;;13.60;5.20;;;;;;;;;;5022883;28;20060;-51
2021/12/11 09:05:55;;;;;;;14.85;6.15;;;;;;;;;;5026878;28;20049;-50
2021/12/11 09:08:24;;;;;;;17.42;6.80;;;;;;;;;;5026689;28;20140;-53
2021/12/11 09:10:52;;;;;;;14.85;6.13;;;;;;;;;;5004639;28;20140;-53
2021/12/11 09:13:23;;;;;;;16.15;5.75;;;;;;;;;;5006272;28;20061;-51
2021/12/11 09:15:53;;;;;;;14.52;6.03;;;;;;;;;;5017451;28;20062;-52
2021/12/11 09:18:24;;;;;;;14.85;6.22;;;;;;;;;;5022700;28;20077;-52
2021/12/11 09:20:53;;;;;;;15.40;5.85;;;;;;;;;;5022467;28;20054;-50
2021/12/11 09:23:24;;;;;;;16.25;6.88;;;;;;;;;;5026287;28;20097;-54
2021/12/11 09:25:53;;;;;;;19.70;7.80;;;;;;;;;;5008207;28;20052;-52
2021/12/11 09:28:24;;;;;;;16.30;6.15;;;;;;;;;;5024776;28;20049;-54
2021/12/11 09:30:54;;;;;;;17.67;6.20;;;;;;;;;;5010887;28;20081;-49
2021/12/11 09:33:24;;;;;;;17.33;7.47;;;;;;;;;;5006164;28;20145;-53
2021/12/11 09:35:52;;;;;;;21.23;7.22;;;;;;;;;;5020647;28;20077;-48
2021/12/11 09:38:21;;;;;;;20.08;7.35;;;;;;;;;;5026397;28;20085;-51
2021/12/11 09:40:54;;;;;;;14.73;5.53;;;;;;;;;;5005368;28;20041;-56
2021/12/11 09:43:39;;;;;;;19.50;6.28;;;;;;;;;;5026342;28;20049;-52
2021/12/11 09:46:07;;;;;;;18.30;6.90;;;;;;;;;;5013684;28;20064;-54
2021/12/11 09:48:33;;;;;;;14.40;6.45;;;;;;;;;;5006440;28;20077;-53
2021/12/11 09:51:03;;;;;;;20.27;6.85;;;;;;;;;;5002987;28;20060;-49
2021/12/11 09:53:34;;;;;;;20.45;7.00;;;;;;;;;;5005865;28;20060;-55
2021/12/11 09:56:01;;;;;;;15.45;6.57;;;;;;;;;;5007500;28;20073;-53
2021/12/11 09:58:29;;;;;;;17.92;7.38;;;;;;;;;;5026334;28;20057;-50
2021/12/11 10:00:58;;;;;;;19.55;7.72;;;;;;;;;;5021953;28;20049;-54
2021/12/11 10:03:27;;;;;;;27.85;10.05;;;;;;;;;;5025548;28;20068;-54
2021/12/11 10:05:56;;;;;;;27.45;9.38;;;;;;;;;;5022207;28;20073;-54
2021/12/11 10:08:29;;;;;;;21.30;8.75;;;;;;;;;;5026359;28;20111;-53
2021/12/11 10:10:58;;;;;;;26.35;8.98;;;;;;;;;;5024889;28;20053;-55
2021/12/11 10:13:26;;;;;;;23.80;7.97;;;;;;;;;;5011640;28;20116;-54
2021/12/11 10:15:53;;;;;;;25.33;9.27;;;;;;;;;;5008380;28;20050;-54
2021/12/11 10:18:22;;;;;;;29.92;9.95;;;;;;;;;;5021823;28;20045;-51
2021/12/11 10:20:50;;;;;;;26.20;9.50;;;;;;;;;;5027600;28;20121;-52
2021/12/11 10:23:19;;;;;;;25.73;9.40;;;;;;;;;;5005705;28;20062;-52
2021/12/11 10:25:48;;;;;;;25.85;9.75;;;;;;;;;;5006644;28;20129;-54
2021/12/11 10:28:17;;;;;;;26.88;9.82;;;;;;;;;;5015309;28;20059;-55
2021/12/11 10:30:46;;;;;;;31.95;10.32;;;;;;;;;;5027550;28;20053;-54
2021/12/11 10:33:13;;;;;;;23.63;9.57;;;;;;;;;;5020786;28;20054;-55
2021/12/11 10:35:44;;;;;;;27.48;9.55;;;;;;;;;;5021000;28;20050;-55
2021/12/11 10:38:11;;;;;;;22.25;9.27;;;;;;;;;;5011902;28;20049;-56
2021/12/11 10:40:38;;;;;;;22.35;8.57;;;;;;;;;;5006130;28;20112;-55
2021/12/11 10:43:07;;;;;;;16.83;6.95;;;;;;;;;;5000774;28;20081;-52
2021/12/11 10:45:33;;;;;;;23.40;8.82;;;;;;;;;;5022477;28;20144;-56
2021/12/11 10:48:01;;;;;;;26.27;8.90;;;;;;;;;;5020923;28;20136;-56
2021/12/11 10:50:29;;;;;;;22.23;9.00;;;;;;;;;;5024964;28;20077;-56
2021/12/11 10:52:58;;;;;;;23.57;8.63;;;;;;;;;;5018241;28;20140;-57
2021/12/11 10:55:28;;;;;;;21.45;8.32;;;;;;;;;;5005622;28;20058;-56
2021/12/11 10:57:55;;;;;;;21.35;8.00;;;;;;;;;;5001829;28;20062;-56
2021/12/11 11:00:25;;;;;;;23.35;9.23;;;;;;;;;;5007032;28;20077;-56
2021/12/11 11:02:52;;;;;;;28.33;9.85;;;;;;;;;;5027558;28;20065;-56
2021/12/11 11:05:20;;;;;;;20.92;7.90;;;;;;;;;;5024771;28;20080;-53
2021/12/11 11:07:47;;;;;;;15.05;6.60;;;;;;;;;;5029369;28;20049;-52
2021/12/11 11:10:17;;;;;;;20.48;7.97;;;;;;;;;;5009235;28;20054;-54
2021/12/11 11:12:44;;;;;;;15.38;6.82;;;;;;;;;;5009932;28;20062;-55
2021/12/11 11:15:12;;;;;;;21.38;8.65;;;;;;;;;;5006281;28;20050;-54
2021/12/11 11:17:38;;;;;;;19.35;7.65;;;;;;;;;;5009168;28;20077;-51
2021/12/11 11:20:06;;;;;;;16.25;6.40;;;;;;;;;;5005944;28;20065;-54
2021/12/11 11:22:35;;;;;;;19.98;8.05;;;;;;;;;;5009260;28;20488;-53
2021/12/11 11:25:04;;;;;;;21.35;7.38;;;;;;;;;;4998973;28;20081;-50
2021/12/11 11:27:32;;;;;;;19.50;7.82;;;;;;;;;;5029217;28;20119;-53
2021/12/11 11:29:59;;;;;;;18.90;7.43;;;;;;;;;;5017703;28;20081;-53
2021/12/11 11:32:31;;;;;;;18.15;6.57;;;;;;;;;;5009455;28;20062;-54
2021/12/11 11:34:59;;;;;;;14.85;6.30;;;;;;;;;;5016020;28;20049;-52
2021/12/11 11:37:25;;;;;;;18.85;7.93;;;;;;;;;;5010063;28;20065;-53
2021/12/11 11:39:52;;;;;;;16.95;7.43;;;;;;;;;;5010831;28;20148;-52
2021/12/11 11:42:20;;;;;;;18.00;6.20;;;;;;;;;;5031346;28;20057;-51
2021/12/11 11:44:49;;;;;;;17.15;7.13;;;;;;;;;;5024586;28;20057;-54
2021/12/11 11:47:19;;;;;;;18.15;6.47;;;;;;;;;;5008690;28;20054;-55
2021/12/11 11:49:46;;;;;;;18.40;6.93;;;;;;;;;;5007657;28;20058;-52
2021/12/11 11:52:14;;;;;;;18.75;7.10;;;;;;;;;;5043437;28;20061;-55
2021/12/11 11:54:42;;;;;;;15.87;6.20;;;;;;;;;;5027588;28;20060;-52
2021/12/11 11:57:10;;;;;;;15.93;6.07;;;;;;;;;;5040765;28;20141;-55
2021/12/11 11:59:39;;;;;;;17.10;6.97;;;;;;;;;;5028023;28;20135;-54
2021/12/11 12:02:10;;;;;;;15.10;6.20;;;;;;;;;;5008172;28;20077;-53
2021/12/11 12:04:40;;;;;;;21.35;8.25;;;;;;;;;;5006534;28;20053;-56
2021/12/11 12:07:08;;;;;;;20.75;7.95;;;;;;;;;;5014251;28;20057;-54
2021/12/11 12:09:37;;;;;;;26.52;7.72;;;;;;;;;;5044333;28;20081;-56
2021/12/11 12:12:04;;;;;;;19.02;7.50;;;;;;;;;;5019815;28;20072;-51
2021/12/11 12:14:33;;;;;;;19.23;7.78;;;;;;;;;;5007260;28;20392;-51
2021/12/11 12:17:02;;;;;;;18.17;7.28;;;;;;;;;;5013913;28;20057;-52
2021/12/11 12:19:28;;;;;;;;;;;;;;;;;;5027969;28;20053;-55
2021/12/11 12:21:58;;;;;;;15.65;6.18;;;;;;;;;;5033636;28;20016;-55
2021/12/11 12:24:28;;;;;;;15.88;6.10;;;;;;;;;;5008530;28;20058;-55
2021/12/11 12:26:55;;;;;;;18.45;6.75;;;;;;;;;;5026944;28;20069;-55
2021/12/11 12:29:22;;;;;;;16.45;6.53;;;;;;;;;;5027358;28;20053;-56
2021/12/11 12:31:51;;;;;;;17.50;6.65;;;;;;;;;;5021267;28;20049;-53
2021/12/11 12:34:20;;;;;;;15.88;6.28;;;;;;;;;;5008321;28;20061;-52
2021/12/11 12:36:46;;;;;;;20.13;7.05;;;;;;;;;;5005972;28;20077;-53
2021/12/11 12:39:17;;;;;;;13.02;5.10;;;;;;;;;;5043792;28;20049;-53
2021/12/11 12:41:45;;;;;;;19.33;6.97;;;;;;;;;;5027164;28;20056;-55
2021/12/11 12:44:17;;;;;;;20.10;6.22;;;;;;;;;;5008702;28;20054;-52
2021/12/11 12:46:46;;;;;;;15.05;6.50;;;;;;;;;;5027501;28;20073;-53
2021/12/11 12:49:13;;;;;;;17.95;6.65;;;;;;;;;;5002425;28;20157;-55
2021/12/11 12:51:41;;;;;;;13.63;5.90;;;;;;;;;;5007546;28;20076;-54
2021/12/11 12:54:09;;;;;;;15.90;6.13;;;;;;;;;;5003290;28;20452;-56
2021/12/11 12:56:39;;;;;;;16.45;6.07;;;;;;;;;;5007940;28;20060;-53
2021/12/11 12:59:07;;;;;;;16.20;5.90;;;;;;;;;;5004174;28;20053;-54
2021/12/11 13:01:36;;;;;;;11.75;4.88;;;;;;;;;;5024266;28;20050;-56
2021/12/11 13:04:05;;;;;;;;;;;;;;;;;;5005361;28;20074;-56
2021/12/11 13:06:33;;;;;;;13.80;5.63;;;;;;;;;;5025387;28;19932;-55
2021/12/11 13:09:08;;;;;;;15.50;5.30;;;;;;;;;;5004832;28;20062;-51
2021/12/11 13:11:36;;;;;;;16.25;6.07;;;;;;;;;;5007197;28;20137;-54
2021/12/11 13:14:05;;;;;;;18.30;6.72;;;;;;;;;;5019435;28;20131;-55
2021/12/11 13:16:31;;;;;;;;;;;;;;;;;;5023816;28;20069;-51
2021/12/11 13:19:00;;;;;;;13.18;4.40;;;;;;;;;;5019324;28;19980;-55
2021/12/11 13:21:27;;;;;;;;;;;;;;;;;;5006953;28;20096;-55
2021/12/11 13:23:55;;;;;;;14.25;5.18;;;;;;;;;;5018587;28;19931;-56
2021/12/11 13:26:23;;;;;;;17.33;6.23;;;;;;;;;;5006629;28;20141;-56
2021/12/11 13:28:54;;;;;;;17.43;6.37;;;;;;;;;;5020079;28;20376;-55
2021/12/11 13:31:24;;;;;;;19.08;7.15;;;;;;;;;;5006485;28;20325;-56
2021/12/11 13:33:51;;;;;;;15.68;6.50;;;;;;;;;;5020669;28;20073;-54
2021/12/11 13:36:20;;;;;;;21.50;7.80;;;;;;;;;;5004561;28;20057;-53
2021/12/11 13:38:46;;;;;;;;;;;;;;;;;;5007038;28;20049;-55
2021/12/11 13:41:14;;;;;;;15.32;6.18;;;;;;;;;;5002356;28;19921;-55
2021/12/11 13:43:42;;;;;;;18.15;7.18;;;;;;;;;;5006029;28;20141;-58
2021/12/11 13:46:09;;;;;;;19.73;7.18;;;;;;;;;;5002377;28;20061;-57
2021/12/11 13:48:37;;;;;;;24.80;8.00;;;;;;;;;;5006429;28;20054;-54
2021/12/11 13:51:06;;;;;;;22.55;8.32;;;;;;;;;;5002551;28;20053;-53
2021/12/11 13:53:33;;;;;;;15.13;5.95;;;;;;;;;;5006444;28;20084;-54
2021/12/11 13:56:00;;;;;;;13.15;4.78;;;;;;;;;;5002937;28;20054;-51
2021/12/11 13:58:27;;;;;;;13.93;4.95;;;;;;;;;;5006760;28;20054;-50
2021/12/11 14:00:55;;;;;;;15.30;6.35;;;;;;;;;;5003980;28;20050;-56
2021/12/11 14:03:23;;;;;;;20.00;7.82;;;;;;;;;;5005976;28;20058;-53
2021/12/11 14:05:52;;;;;;;27.45;9.75;;;;;;;;;;5002735;28;20041;-53
2021/12/11 14:08:19;;;;;;;22.00;9.13;;;;;;;;;;5014074;28;20085;-56
2021/12/11 14:10:47;;;;;;;23.95;9.13;;;;;;;;;;5003799;28;20085;-52
2021/12/11 14:13:14;;;;;;;18.60;8.02;;;;;;;;;;5006143;28;20150;-52
2021/12/11 14:15:43;;;;;;;15.52;5.72;;;;;;;;;;5004329;28;20063;-54
2021/12/11 14:18:10;;;;;;;17.15;7.53;;;;;;;;;;5008383;28;20073;-56
2021/12/11 14:20:37;;;;;;;18.33;7.80;;;;;;;;;;5007779;28;20116;-53
2021/12/11 14:23:07;;;;;;;20.08;7.60;;;;;;;;;;5006489;28;20061;-54
2021/12/11 14:25:34;;;;;;;17.35;6.88;;;;;;;;;;5017148;28;20050;-56
2021/12/11 14:28:05;;;;;;;21.83;8.05;;;;;;;;;;5005232;28;20050;-53
2021/12/11 14:30:32;;;;;;;26.05;9.40;;;;;;;;;;5009885;28;20445;-55
2021/12/11 14:32:59;;;;;;;27.25;10.43;;;;;;;;;;5007491;28;20066;-56
2021/12/11 14:35:28;;;;;;;29.95;11.38;;;;;;;;;;5011924;28;20064;-53
2021/12/11 14:37:55;;;;;;;;;;;;;;;;;;5009550;28;20148;-56
2021/12/11 14:40:25;;;;;;;26.35;8.60;;;;;;;;;;5029401;28;20024;-54
2021/12/11 14:42:53;;;;;;;13.63;5.00;;;;;;;;;;4997646;28;20050;-56
2021/12/11 14:45:22;;;;;;;15.13;6.45;;;;;;;;;;5005245;28;20121;-56
2021/12/11 14:47:49;;;;;;;25.45;9.30;;;;;;;;;;5007801;28;20058;-53
2021/12/11 14:50:17;;;;;;;26.27;10.07;;;;;;;;;;5008994;28;20049;-55